KAC25C OBBI-OKKK
Flight info
| Callsign | KAC25C |
|---|---|
| Flight time | 0h 48m |
| Altitude | 26000 |
| Route | BHR A453 KUMBO/N0420F240 A453 DEBTI |
| Aircraft | A20N/M-SDE2E3FGHIRWXY/LB1 |
Departure
| Time | 2026-04-28 14:21 |
|---|---|
| Airport | Bahrain International Airport (OBBI) |
Arrival
| Time | 2026-04-28 15:09 |
|---|---|
| Airport | Kuwait International Airport (OKKK) |
| Time | Latitude | Longitude | Altitude | Speed | Heading |
|---|---|---|---|---|---|
| 2026-04-28 13:55 | 26.26667 | 50.63297 | 12 ft | 0 kts | 213° |
| 2026-04-28 14:10 | 26.26677 | 50.63304 | 12 ft | 2 kts | 213° |
| 2026-04-28 14:10 | 26.26689 | 50.63313 | 12 ft | 2 kts | 213° |
| 2026-04-28 14:10 | 26.26702 | 50.63322 | 12 ft | 2 kts | 213° |
| 2026-04-28 14:11 | 26.26714 | 50.63331 | 12 ft | 2 kts | 213° |
| 2026-04-28 14:11 | 26.26727 | 50.63340 | 12 ft | 2 kts | 213° |
| 2026-04-28 14:11 | 26.26740 | 50.63349 | 12 ft | 1 kts | 213° |
| 2026-04-28 14:11 | 26.26748 | 50.63354 | 12 ft | 2 kts | 195° |
| 2026-04-28 14:12 | 26.26762 | 50.63353 | 12 ft | 2 kts | 148° |
| 2026-04-28 14:12 | 26.26769 | 50.63347 | 12 ft | 1 kts | 123° |
| 2026-04-28 14:12 | 26.26772 | 50.63340 | 12 ft | 0 kts | 122° |
| 2026-04-28 14:15 | 26.26768 | 50.63349 | 12 ft | 5 kts | 109° |
| 2026-04-28 14:16 | 26.26800 | 50.63377 | 12 ft | 7 kts | 25° |
| 2026-04-28 14:16 | 26.26868 | 50.63379 | 12 ft | 15 kts | 313° |
| 2026-04-28 14:16 | 26.26944 | 50.63251 | 12 ft | 24 kts | 303° |
| 2026-04-28 14:16 | 26.27053 | 50.63063 | 12 ft | 30 kts | 302° |
| 2026-04-28 14:17 | 26.27172 | 50.62874 | 12 ft | 29 kts | 302° |
| 2026-04-28 14:17 | 26.27279 | 50.62687 | 12 ft | 27 kts | 303° |
| 2026-04-28 14:17 | 26.27381 | 50.62512 | 12 ft | 26 kts | 303° |
| 2026-04-28 14:17 | 26.27480 | 50.62341 | 12 ft | 25 kts | 303° |
| 2026-04-28 14:18 | 26.27576 | 50.62177 | 12 ft | 24 kts | 304° |
| 2026-04-28 14:18 | 26.27652 | 50.62047 | 12 ft | 19 kts | 303° |
| 2026-04-28 14:18 | 26.27724 | 50.61920 | 12 ft | 20 kts | 302° |
| 2026-04-28 14:18 | 26.27804 | 50.61782 | 12 ft | 22 kts | 304° |
| 2026-04-28 14:19 | 26.27864 | 50.61681 | 12 ft | 14 kts | 304° |
| 2026-04-28 14:19 | 26.27915 | 50.61624 | 12 ft | 10 kts | 353° |
| 2026-04-28 14:19 | 26.27988 | 50.61668 | 12 ft | 11 kts | 37° |
| 2026-04-28 14:19 | 26.28031 | 50.61734 | 12 ft | 7 kts | 104° |
| 2026-04-28 14:20 | 26.28007 | 50.61773 | 12 ft | 7 kts | 124° |
| 2026-04-28 14:20 | 26.28001 | 50.61783 | 12 ft | 0 kts | 123° |
| 2026-04-28 14:20 | 26.27981 | 50.61816 | 12 ft | 26 kts | 122° |
| 2026-04-28 14:20 | 26.27748 | 50.62219 | 12 ft | 94 kts | 124° |
| 2026-04-28 14:21 | 26.27285 | 50.63023 | 12 ft | 149 kts | 122° |
| 2026-04-28 14:21 | 26.26685 | 50.64055 | 306 ft | 165 kts | 121° |
| 2026-04-28 14:21 | 26.26034 | 50.65133 | 838 ft | 170 kts | 120° |
| 2026-04-28 14:21 | 26.25489 | 50.66286 | 1355 ft | 173 kts | 104° |
| 2026-04-28 14:22 | 26.25257 | 50.67584 | 1891 ft | 173 kts | 86° |
| 2026-04-28 14:22 | 26.25318 | 50.68919 | 2344 ft | 178 kts | 79° |
| 2026-04-28 14:22 | 26.25443 | 50.70346 | 2689 ft | 190 kts | 78° |
| 2026-04-28 14:22 | 26.25617 | 50.71819 | 3105 ft | 198 kts | 78° |
| 2026-04-28 14:23 | 26.25813 | 50.73392 | 3425 ft | 214 kts | 78° |
| 2026-04-28 14:23 | 26.26027 | 50.75090 | 3743 ft | 231 kts | 78° |
| 2026-04-28 14:23 | 26.26278 | 50.76967 | 4060 ft | 250 kts | 78° |
| 2026-04-28 14:23 | 26.26722 | 50.78821 | 4615 ft | 253 kts | 58° |
| 2026-04-28 14:24 | 26.27979 | 50.80181 | 4986 ft | 264 kts | 23° |
| 2026-04-28 14:24 | 26.29799 | 50.80481 | 5552 ft | 269 kts | 349° |
| 2026-04-28 14:24 | 26.31518 | 50.79692 | 6271 ft | 271 kts | 323° |
| 2026-04-28 14:24 | 26.33010 | 50.78402 | 6981 ft | 276 kts | 321° |
| 2026-04-28 14:25 | 26.34536 | 50.77120 | 7716 ft | 280 kts | 321° |
| 2026-04-28 14:25 | 26.36122 | 50.75822 | 8453 ft | 285 kts | 321° |
| 2026-04-28 14:25 | 26.37712 | 50.74540 | 9176 ft | 289 kts | 320° |
| 2026-04-28 14:25 | 26.39367 | 50.73212 | 9938 ft | 293 kts | 320° |
| 2026-04-28 14:26 | 26.41040 | 50.71870 | 10514 ft | 304 kts | 320° |
| 2026-04-28 14:26 | 26.42800 | 50.70460 | 10880 ft | 321 kts | 320° |
| 2026-04-28 14:26 | 26.44670 | 50.68966 | 11218 ft | 339 kts | 320° |
| 2026-04-28 14:26 | 26.46632 | 50.67401 | 11523 ft | 357 kts | 320° |
| 2026-04-28 14:27 | 26.48706 | 50.65748 | 11816 ft | 374 kts | 321° |
| 2026-04-28 14:27 | 26.50871 | 50.64027 | 12098 ft | 390 kts | 321° |
| 2026-04-28 14:27 | 26.53138 | 50.62225 | 12386 ft | 404 kts | 321° |
| 2026-04-28 14:27 | 26.55423 | 50.60409 | 12908 ft | 410 kts | 321° |
| 2026-04-28 14:28 | 26.57766 | 50.58546 | 13546 ft | 413 kts | 320° |
| 2026-04-28 14:28 | 26.60102 | 50.56686 | 14232 ft | 413 kts | 320° |
| 2026-04-28 14:28 | 26.62429 | 50.54829 | 14863 ft | 415 kts | 321° |
| 2026-04-28 14:28 | 26.64789 | 50.52943 | 15436 ft | 418 kts | 320° |
| 2026-04-28 14:29 | 26.67167 | 50.51044 | 15960 ft | 421 kts | 320° |
| 2026-04-28 14:29 | 26.69509 | 50.49083 | 16472 ft | 423 kts | 318° |
| 2026-04-28 14:29 | 26.71753 | 50.46984 | 16986 ft | 424 kts | 315° |
| 2026-04-28 14:29 | 26.73926 | 50.44747 | 17510 ft | 426 kts | 313° |
| 2026-04-28 14:30 | 26.76098 | 50.42450 | 18044 ft | 428 kts | 313° |
| 2026-04-28 14:30 | 26.78250 | 50.40166 | 18490 ft | 431 kts | 312° |
| 2026-04-28 14:30 | 26.80453 | 50.37828 | 18919 ft | 435 kts | 313° |
| 2026-04-28 14:30 | 26.82651 | 50.35501 | 19364 ft | 438 kts | 312° |
| 2026-04-28 14:31 | 26.84876 | 50.33152 | 19788 ft | 442 kts | 312° |
| 2026-04-28 14:31 | 26.87108 | 50.30788 | 20213 ft | 445 kts | 311° |
| 2026-04-28 14:31 | 26.89367 | 50.28396 | 20636 ft | 449 kts | 311° |
| 2026-04-28 14:31 | 26.91622 | 50.25999 | 21010 ft | 453 kts | 311° |
| 2026-04-28 14:32 | 26.93927 | 50.23549 | 21412 ft | 456 kts | 311° |
| 2026-04-28 14:32 | 26.96234 | 50.21098 | 21816 ft | 459 kts | 310° |
| 2026-04-28 14:32 | 26.98530 | 50.18653 | 22217 ft | 461 kts | 310° |
| 2026-04-28 14:32 | 27.00880 | 50.16152 | 22556 ft | 465 kts | 310° |
| 2026-04-28 14:33 | 27.03223 | 50.13636 | 22868 ft | 468 kts | 309° |
| 2026-04-28 14:33 | 27.05476 | 50.11014 | 23187 ft | 468 kts | 306° |
| 2026-04-28 14:33 | 27.07616 | 50.08284 | 23650 ft | 465 kts | 305° |
| 2026-04-28 14:33 | 27.09707 | 50.05555 | 24239 ft | 460 kts | 304° |
| 2026-04-28 14:34 | 27.13824 | 50.00144 | 24994 ft | 459 kts | 303° |
| 2026-04-28 14:34 | 27.15896 | 49.97409 | 25291 ft | 459 kts | 304° |
| 2026-04-28 14:34 | 27.17972 | 49.94673 | 25614 ft | 459 kts | 303° |
| 2026-04-28 14:35 | 27.20051 | 49.91931 | 25774 ft | 461 kts | 303° |
| 2026-04-28 14:35 | 27.22128 | 49.89188 | 25781 ft | 461 kts | 303° |
| 2026-04-28 14:35 | 27.24192 | 49.86465 | 25777 ft | 461 kts | 303° |
| 2026-04-28 14:35 | 27.26267 | 49.83721 | 25782 ft | 461 kts | 303° |
| 2026-04-28 14:36 | 27.28357 | 49.80961 | 25780 ft | 461 kts | 303° |
| 2026-04-28 14:36 | 27.30413 | 49.78242 | 25782 ft | 461 kts | 303° |
| 2026-04-28 14:36 | 27.32498 | 49.75483 | 25774 ft | 461 kts | 303° |
| 2026-04-28 14:36 | 27.34558 | 49.72757 | 25766 ft | 461 kts | 303° |
| 2026-04-28 14:37 | 27.36643 | 49.69994 | 25767 ft | 460 kts | 303° |
| 2026-04-28 14:37 | 27.38713 | 49.67247 | 25769 ft | 460 kts | 303° |
| 2026-04-28 14:37 | 27.40766 | 49.64521 | 25767 ft | 461 kts | 303° |
| 2026-04-28 14:37 | 27.42852 | 49.61752 | 25760 ft | 460 kts | 303° |
| 2026-04-28 14:38 | 27.44914 | 49.59023 | 25764 ft | 461 kts | 304° |
| 2026-04-28 14:38 | 27.47081 | 49.56376 | 25760 ft | 463 kts | 307° |
| 2026-04-28 14:38 | 27.49409 | 49.53825 | 25753 ft | 467 kts | 310° |
| 2026-04-28 14:38 | 27.51844 | 49.51434 | 25758 ft | 470 kts | 313° |
| 2026-04-28 14:39 | 27.54403 | 49.49108 | 25755 ft | 472 kts | 314° |
| 2026-04-28 14:39 | 27.56985 | 49.46791 | 25754 ft | 472 kts | 314° |
| 2026-04-28 14:39 | 27.59531 | 49.44515 | 25755 ft | 471 kts | 315° |
| 2026-04-28 14:39 | 27.62090 | 49.42225 | 25760 ft | 471 kts | 315° |
| 2026-04-28 14:40 | 27.64665 | 49.39918 | 25745 ft | 471 kts | 314° |
| 2026-04-28 14:40 | 27.66368 | 49.38391 | 25749 ft | 471 kts | 314° |
| 2026-04-28 14:40 | 27.69791 | 49.35316 | 25747 ft | 471 kts | 314° |
| 2026-04-28 14:40 | 27.72354 | 49.33012 | 25745 ft | 470 kts | 314° |
| 2026-04-28 14:41 | 27.74899 | 49.30721 | 25741 ft | 469 kts | 314° |
| 2026-04-28 14:41 | 27.77465 | 49.28406 | 25742 ft | 470 kts | 314° |
| 2026-04-28 14:41 | 27.80013 | 49.26108 | 25717 ft | 470 kts | 314° |
| 2026-04-28 14:41 | 27.82565 | 49.23808 | 25480 ft | 470 kts | 314° |
| 2026-04-28 14:42 | 27.85130 | 49.21537 | 25251 ft | 471 kts | 316° |
| 2026-04-28 14:42 | 27.87821 | 49.19367 | 25015 ft | 475 kts | 319° |
| 2026-04-28 14:42 | 27.90598 | 49.17351 | 24786 ft | 478 kts | 322° |
| 2026-04-28 14:42 | 27.93466 | 49.15437 | 24556 ft | 481 kts | 322° |
| 2026-04-28 14:43 | 27.96351 | 49.13544 | 24324 ft | 480 kts | 323° |
| 2026-04-28 14:43 | 27.99242 | 49.11653 | 24093 ft | 478 kts | 323° |
| 2026-04-28 14:43 | 28.02140 | 49.09758 | 23858 ft | 477 kts | 323° |
| 2026-04-28 14:43 | 28.05020 | 49.07873 | 23617 ft | 476 kts | 323° |
| 2026-04-28 14:44 | 28.07853 | 49.06014 | 23389 ft | 475 kts | 323° |
| 2026-04-28 14:44 | 28.10732 | 49.04120 | 23153 ft | 475 kts | 323° |
| 2026-04-28 14:44 | 28.13570 | 49.02251 | 22914 ft | 473 kts | 323° |
| 2026-04-28 14:44 | 28.16405 | 49.00382 | 22671 ft | 472 kts | 323° |
| 2026-04-28 14:45 | 28.19237 | 48.98515 | 22427 ft | 471 kts | 323° |
| 2026-04-28 14:45 | 28.22076 | 48.96643 | 22173 ft | 468 kts | 323° |
| 2026-04-28 14:45 | 28.24863 | 48.94801 | 21930 ft | 467 kts | 323° |
| 2026-04-28 14:45 | 28.27690 | 48.92931 | 21751 ft | 465 kts | 324° |
| 2026-04-28 14:46 | 28.30454 | 48.91107 | 21748 ft | 464 kts | 324° |
| 2026-04-28 14:46 | 28.33249 | 48.89261 | 21737 ft | 465 kts | 324° |
| 2026-04-28 14:46 | 28.36028 | 48.87425 | 21733 ft | 464 kts | 323° |
| 2026-04-28 14:46 | 28.38828 | 48.85571 | 21728 ft | 464 kts | 324° |
| 2026-04-28 14:47 | 28.41637 | 48.83709 | 21733 ft | 465 kts | 324° |
| 2026-04-28 14:47 | 28.44405 | 48.81870 | 21733 ft | 464 kts | 324° |
| 2026-04-28 14:47 | 28.47216 | 48.80003 | 21735 ft | 464 kts | 323° |
| 2026-04-28 14:47 | 28.49989 | 48.78161 | 21734 ft | 464 kts | 324° |
| 2026-04-28 14:48 | 28.52770 | 48.76311 | 21730 ft | 464 kts | 324° |
| 2026-04-28 14:48 | 28.55478 | 48.74379 | 21724 ft | 459 kts | 318° |
| 2026-04-28 14:48 | 28.57931 | 48.72053 | 21731 ft | 454 kts | 310° |
| 2026-04-28 14:48 | 28.60033 | 48.69429 | 21700 ft | 444 kts | 303° |
| 2026-04-28 14:49 | 28.61912 | 48.66671 | 21373 ft | 434 kts | 302° |
| 2026-04-28 14:49 | 28.63666 | 48.64017 | 20907 ft | 416 kts | 301° |
| 2026-04-28 14:49 | 28.65353 | 48.61445 | 20137 ft | 398 kts | 301° |
| 2026-04-28 14:49 | 28.66978 | 48.58977 | 19433 ft | 379 kts | 301° |
| 2026-04-28 14:50 | 28.68509 | 48.56660 | 19035 ft | 353 kts | 301° |
| 2026-04-28 14:50 | 28.69940 | 48.54507 | 18828 ft | 327 kts | 301° |
| 2026-04-28 14:50 | 28.71263 | 48.52511 | 18667 ft | 310 kts | 300° |
| 2026-04-28 14:50 | 28.72572 | 48.50600 | 18501 ft | 308 kts | 304° |
| 2026-04-28 14:51 | 28.74124 | 48.48918 | 18322 ft | 312 kts | 315° |
| 2026-04-28 14:51 | 28.75974 | 48.47512 | 17932 ft | 319 kts | 323° |
| 2026-04-28 14:51 | 28.77931 | 48.46275 | 17719 ft | 325 kts | 324° |
| 2026-04-28 14:51 | 28.79928 | 48.45048 | 17705 ft | 328 kts | 324° |
| 2026-04-28 14:52 | 28.81930 | 48.43822 | 17718 ft | 329 kts | 324° |
| 2026-04-28 14:52 | 28.83946 | 48.42582 | 17708 ft | 330 kts | 324° |
| 2026-04-28 14:52 | 28.85983 | 48.41319 | 17697 ft | 331 kts | 324° |
| 2026-04-28 14:52 | 28.88011 | 48.40065 | 17704 ft | 331 kts | 324° |
| 2026-04-28 14:53 | 28.90036 | 48.38806 | 17698 ft | 331 kts | 324° |
| 2026-04-28 14:53 | 28.92030 | 48.37566 | 17711 ft | 330 kts | 324° |
| 2026-04-28 14:53 | 28.94061 | 48.36302 | 17710 ft | 330 kts | 324° |
| 2026-04-28 14:53 | 28.96087 | 48.35039 | 17696 ft | 330 kts | 324° |
| 2026-04-28 14:54 | 28.98102 | 48.33781 | 17703 ft | 330 kts | 324° |
| 2026-04-28 14:54 | 29.00124 | 48.32523 | 17695 ft | 331 kts | 324° |
| 2026-04-28 14:54 | 29.02131 | 48.31274 | 17666 ft | 328 kts | 324° |
| 2026-04-28 14:54 | 29.04135 | 48.30026 | 17324 ft | 326 kts | 323° |
| 2026-04-28 14:55 | 29.05949 | 48.28572 | 16883 ft | 315 kts | 306° |
| 2026-04-28 14:55 | 29.07085 | 48.26521 | 16416 ft | 299 kts | 282° |
| 2026-04-28 14:55 | 29.07334 | 48.24268 | 15988 ft | 287 kts | 259° |
| 2026-04-28 14:55 | 29.06801 | 48.22109 | 15613 ft | 278 kts | 246° |
| 2026-04-28 14:56 | 29.06059 | 48.20138 | 15260 ft | 265 kts | 244° |
| 2026-04-28 14:56 | 29.05292 | 48.18222 | 14714 ft | 263 kts | 244° |
| 2026-04-28 14:56 | 29.04538 | 48.16361 | 14356 ft | 255 kts | 244° |
| 2026-04-28 14:56 | 29.03799 | 48.14526 | 13833 ft | 256 kts | 243° |
| 2026-04-28 14:57 | 29.02853 | 48.12839 | 13328 ft | 255 kts | 225° |
| 2026-04-28 14:57 | 29.01950 | 48.11957 | 12974 ft | 254 kts | 217° |
| 2026-04-28 14:57 | 29.00019 | 48.10472 | 12268 ft | 253 kts | 214° |
| 2026-04-28 14:57 | 28.98529 | 48.09392 | 11709 ft | 254 kts | 214° |
| 2026-04-28 14:58 | 28.97039 | 48.08326 | 11261 ft | 253 kts | 214° |
| 2026-04-28 14:58 | 28.95556 | 48.07267 | 10810 ft | 251 kts | 213° |
| 2026-04-28 14:58 | 28.94084 | 48.06211 | 10188 ft | 254 kts | 213° |
| 2026-04-28 14:58 | 28.92531 | 48.05177 | 9436 ft | 261 kts | 203° |
| 2026-04-28 14:59 | 28.90756 | 48.04866 | 8720 ft | 268 kts | 175° |
| 2026-04-28 14:59 | 28.88980 | 48.05580 | 8030 ft | 277 kts | 148° |
| 2026-04-28 14:59 | 28.87662 | 48.07180 | 7315 ft | 286 kts | 121° |
| 2026-04-28 14:59 | 28.87057 | 48.09325 | 6521 ft | 293 kts | 99° |
| 2026-04-28 15:00 | 28.86869 | 48.11631 | 5747 ft | 297 kts | 95° |
| 2026-04-28 15:00 | 28.86827 | 48.13994 | 4989 ft | 299 kts | 83° |
| 2026-04-28 15:00 | 28.87490 | 48.16174 | 4358 ft | 291 kts | 54° |
| 2026-04-28 15:00 | 28.88887 | 48.17710 | 4026 ft | 269 kts | 25° |
| 2026-04-28 15:01 | 28.90554 | 48.18547 | 3761 ft | 253 kts | 16° |
| 2026-04-28 15:01 | 28.92203 | 48.19202 | 3344 ft | 249 kts | 14° |
| 2026-04-28 15:01 | 28.93838 | 48.19673 | 3027 ft | 240 kts | 355° |
| 2026-04-28 15:01 | 28.95464 | 48.19342 | 2995 ft | 236 kts | 337° |
| 2026-04-28 15:02 | 28.96989 | 48.18704 | 2983 ft | 232 kts | 328° |
| 2026-04-28 15:02 | 28.98083 | 48.17480 | 2970 ft | 214 kts | 292° |
| 2026-04-28 15:02 | 28.98666 | 48.15927 | 2976 ft | 214 kts | 296° |
| 2026-04-28 15:02 | 28.99459 | 48.14511 | 2975 ft | 208 kts | 302° |
| 2026-04-28 15:03 | 29.00294 | 48.13237 | 2968 ft | 196 kts | 303° |
| 2026-04-28 15:03 | 29.01135 | 48.12003 | 2980 ft | 196 kts | 304° |
| 2026-04-28 15:03 | 29.01973 | 48.10780 | 2984 ft | 195 kts | 304° |
| 2026-04-28 15:03 | 29.02807 | 48.09562 | 2990 ft | 194 kts | 303° |
| 2026-04-28 15:04 | 29.03646 | 48.08341 | 2988 ft | 195 kts | 304° |
| 2026-04-28 15:04 | 29.04516 | 48.07173 | 3020 ft | 191 kts | 310° |
| 2026-04-28 15:04 | 29.05500 | 48.06244 | 3019 ft | 173 kts | 320° |
| 2026-04-28 15:04 | 29.06480 | 48.05577 | 2967 ft | 155 kts | 324° |
| 2026-04-28 15:05 | 29.07429 | 48.05026 | 2926 ft | 153 kts | 327° |
| 2026-04-28 15:05 | 29.08374 | 48.04500 | 2732 ft | 151 kts | 327° |
| 2026-04-28 15:05 | 29.09331 | 48.03966 | 2560 ft | 151 kts | 326° |
| 2026-04-28 15:05 | 29.10281 | 48.03457 | 2395 ft | 150 kts | 328° |
| 2026-04-28 15:06 | 29.11234 | 48.02973 | 2211 ft | 150 kts | 329° |
| 2026-04-28 15:06 | 29.12182 | 48.02496 | 2033 ft | 149 kts | 328° |
| 2026-04-28 15:06 | 29.13131 | 48.01992 | 1840 ft | 149 kts | 326° |
| 2026-04-28 15:06 | 29.14052 | 48.01471 | 1665 ft | 148 kts | 327° |
| 2026-04-28 15:07 | 29.14987 | 48.00961 | 1501 ft | 149 kts | 328° |
| 2026-04-28 15:07 | 29.15934 | 48.00478 | 1304 ft | 149 kts | 330° |
| 2026-04-28 15:07 | 29.16881 | 47.99985 | 1057 ft | 147 kts | 328° |
| 2026-04-28 15:07 | 29.17803 | 47.99473 | 895 ft | 147 kts | 328° |
| 2026-04-28 15:08 | 29.18733 | 47.98978 | 719 ft | 148 kts | 330° |
| 2026-04-28 15:08 | 29.19663 | 47.98484 | 529 ft | 147 kts | 330° |
| 2026-04-28 15:08 | 29.20594 | 47.97991 | 357 ft | 147 kts | 331° |
| 2026-04-28 15:08 | 29.21528 | 47.97495 | 186 ft | 146 kts | 331° |
| 2026-04-28 15:09 | 29.22375 | 47.97037 | 159 ft | 113 kts | 335° |
| 2026-04-28 15:09 | 29.22936 | 47.96745 | 150 ft | 64 kts | 336° |
| 2026-04-28 15:09 | 29.23203 | 47.96602 | 149 ft | 32 kts | 344° |
| 2026-04-28 15:09 | 29.23323 | 47.96593 | 149 ft | 20 kts | 13° |
| 2026-04-28 15:10 | 29.23401 | 47.96623 | 147 ft | 6 kts | 18° |
| 2026-04-28 15:10 | 29.23451 | 47.96641 | 146 ft | 8 kts | 18° |
| 2026-04-28 15:10 | 29.23499 | 47.96659 | 145 ft | 6 kts | 16° |
| 2026-04-28 15:10 | 29.23545 | 47.96661 | 145 ft | 7 kts | 349° |
| 2026-04-28 15:11 | 29.23596 | 47.96643 | 145 ft | 8 kts | 335° |
| 2026-04-28 15:11 | 29.23646 | 47.96606 | 145 ft | 8 kts | 334° |
| 2026-04-28 15:11 | 29.23705 | 47.96578 | 145 ft | 9 kts | 340° |
| 2026-04-28 15:11 | 29.23828 | 47.96520 | 145 ft | 29 kts | 334° |
| 2026-04-28 15:12 | 29.24047 | 47.96402 | 143 ft | 35 kts | 335° |
| 2026-04-28 15:12 | 29.24264 | 47.96285 | 140 ft | 33 kts | 333° |
| 2026-04-28 15:12 | 29.24469 | 47.96177 | 139 ft | 31 kts | 335° |
| 2026-04-28 15:12 | 29.24588 | 47.96114 | 138 ft | 8 kts | 335° |
| 2026-04-28 15:13 | 29.24602 | 47.96107 | 138 ft | 1 kts | 335° |
| 2026-04-28 15:13 | 29.24607 | 47.96104 | 138 ft | 0 kts | 334° |
| 2026-04-28 15:13 | 29.24617 | 47.96098 | 138 ft | 8 kts | 334° |
| 2026-04-28 15:13 | 29.24688 | 47.96081 | 137 ft | 11 kts | 32° |
| 2026-04-28 15:14 | 29.24723 | 47.96142 | 136 ft | 9 kts | 68° |
| 2026-04-28 15:14 | 29.24733 | 47.96169 | 136 ft | 0 kts | 64° |
| 2026-04-28 15:14 | 29.24733 | 47.96170 | 136 ft | 0 kts | 64° |